createdAt,value
2024-01-15T00:01:05.858Z,97465.52
2024-01-15T00:06:29.931Z,97464.22
2024-01-15T00:11:32.993Z,97457.16
2024-01-15T00:16:36.154Z,97450.77
2024-01-15T00:21:39.220Z,97441.79
2024-01-15T00:26:42.255Z,97438.80
2024-01-15T00:31:45.295Z,97425.52
2024-01-15T00:36:48.558Z,97409.48
2024-01-15T00:41:51.617Z,97403.42
2024-01-15T00:46:54.604Z,97397.23
2024-01-15T00:51:57.584Z,97391.55
2024-01-15T00:57:00.526Z,97382.21
2024-01-15T01:02:03.814Z,97375.02
2024-01-15T01:07:06.849Z,97378.30
2024-01-15T01:12:09.858Z,97373.30
2024-01-15T01:17:12.875Z,97368.51
2024-01-15T01:22:15.877Z,97362.45
2024-01-15T01:27:18.844Z,97346.24
2024-01-15T01:32:21.854Z,97329.12
2024-01-15T01:37:24.838Z,97320.86
2024-01-15T01:42:27.826Z,97320.77
2024-01-15T01:47:31.287Z,97315.97
2024-01-15T01:52:34.720Z,97318.69
2024-01-15T01:57:38.046Z,97317.77
2024-01-15T02:02:41.117Z,97310.98
2024-01-15T02:07:45.288Z,97309.86
2024-01-15T02:12:49.959Z,97302.10
2024-01-15T02:18:08.768Z,97299.16
2024-01-15T02:23:17.122Z,97293.04
2024-01-15T02:28:20.291Z,97286.77
2024-01-15T02:33:23.749Z,97276.25
2024-01-15T02:38:26.917Z,97272.64
2024-01-15T02:43:29.959Z,97264.13
2024-01-15T02:48:34.128Z,97257.80
2024-01-15T02:53:38.537Z,97240.35
2024-01-15T02:58:41.513Z,97231.01
2024-01-15T03:03:44.557Z,97232.34
2024-01-15T03:08:47.565Z,97222.73
2024-01-15T03:13:50.562Z,97209.08
2024-01-15T03:18:53.642Z,97207.61
2024-01-15T03:23:56.688Z,97201.30
2024-01-15T03:28:59.654Z,97197.29
2024-01-15T03:34:02.922Z,97194.34
2024-01-15T03:39:06.015Z,97189.28
2024-01-15T03:44:09.158Z,97180.55
2024-01-15T03:49:12.289Z,97167.94
2024-01-15T03:54:17.153Z,97161.80
2024-01-15T03:59:21.365Z,97160.34
2024-01-15T04:04:24.408Z,97164.52
2024-01-15T04:09:27.438Z,97162.98
2024-01-15T04:14:30.397Z,97160.30
2024-01-15T04:19:33.441Z,97151.35
2024-01-15T04:24:36.480Z,97140.70
2024-01-15T04:29:41.666Z,97139.25
2024-01-15T04:34:45.428Z,97138.23
2024-01-15T04:39:48.509Z,97130.41
2024-01-15T04:44:51.582Z,97122.21
2024-01-15T04:49:54.626Z,97117.38
2024-01-15T04:54:57.616Z,97106.80
2024-01-15T05:00:00.656Z,97099.56
2024-01-15T05:05:03.914Z,97099.23
2024-01-15T05:10:08.949Z,97092.88
2024-01-15T05:15:12.561Z,97093.75
2024-01-15T05:20:15.890Z,97087.15
2024-01-15T05:25:18.936Z,97084.51
2024-01-15T05:30:21.928Z,97083.21
2024-01-15T05:35:24.930Z,97080.03
2024-01-15T05:40:27.924Z,97083.52
2024-01-15T05:45:32.110Z,97075.55
2024-01-15T05:50:35.129Z,97077.08
2024-01-15T05:55:39.470Z,97073.84
2024-01-15T06:00:42.631Z,97070.81
2024-01-15T06:05:45.873Z,97059.77
2024-01-15T06:10:48.939Z,97061.64
2024-01-15T06:15:52.035Z,97062.13
2024-01-15T06:20:55.286Z,97054.40
2024-01-15T06:25:58.235Z,97059.06
2024-01-15T06:31:01.345Z,97062.58
2024-01-15T06:36:05.084Z,97057.27
2024-01-15T06:41:08.077Z,97062.60
2024-01-15T06:46:11.120Z,97066.86
2024-01-15T06:51:14.551Z,97067.65
2024-01-15T06:56:17.494Z,97070.73
2024-01-15T07:01:20.643Z,97068.30
2024-01-15T07:06:23.699Z,97077.25
2024-01-15T07:11:26.748Z,97078.70
2024-01-15T07:16:36.906Z,97080.42
2024-01-15T07:21:41.403Z,97088.53
2024-01-15T07:26:45.845Z,97079.98
2024-01-15T07:31:51.539Z,97077.06
2024-01-15T07:36:54.842Z,97071.38
2024-01-15T07:41:58.163Z,97075.27
2024-01-15T07:47:01.124Z,97074.14
2024-01-15T07:52:05.989Z,97065.75
2024-01-15T07:57:09.057Z,97063.27
2024-01-15T08:02:12.452Z,97062.86
2024-01-15T08:07:15.585Z,97058.17
2024-01-15T08:12:18.668Z,97053.52
2024-01-15T08:17:21.754Z,97050.70
2024-01-15T08:22:24.862Z,97054.55
2024-01-15T08:27:27.904Z,97054.48
2024-01-15T08:32:31.063Z,97060.11
2024-01-15T08:37:34.034Z,97061.16
2024-01-15T08:42:37.130Z,97053.91
2024-01-15T08:47:40.110Z,97064.91
2024-01-15T08:52:43.091Z,97067.44
2024-01-15T08:57:46.110Z,97070.80
2024-01-15T09:02:49.086Z,97071.04
2024-01-15T09:07:53.451Z,97080.02
2024-01-15T09:12:56.529Z,97089.55
2024-01-15T09:18:00.280Z,97083.86
2024-01-15T09:23:03.947Z,97087.11
2024-01-15T09:28:07.147Z,97083.60
2024-01-15T09:33:10.946Z,97083.17
2024-01-15T09:38:14.031Z,97081.70
2024-01-15T09:43:18.263Z,97070.30
2024-01-15T09:48:21.624Z,97073.64
2024-01-15T09:53:26.448Z,97066.22
2024-01-15T09:58:31.062Z,97065.15
2024-01-15T10:03:34.390Z,97062.55
2024-01-15T10:08:38.577Z,97045.50
2024-01-15T10:13:42.116Z,97041.14
2024-01-15T10:18:46.895Z,97046.05
2024-01-15T10:23:50.750Z,97047.77
2024-01-15T10:28:53.844Z,97048.64
2024-01-15T10:34:13.631Z,97046.33
2024-01-15T10:39:17.179Z,97049.73
2024-01-15T10:44:20.796Z,97050.05
2024-01-15T10:49:31.457Z,97043.10
2024-01-15T10:54:38.695Z,97040.61
2024-01-15T10:59:41.753Z,97049.36
2024-01-15T11:04:44.807Z,97053.99
2024-01-15T11:09:47.941Z,97046.59
2024-01-15T11:14:51.246Z,97043.64
2024-01-15T11:19:54.330Z,97036.79
2024-01-15T11:25:15.809Z,97040.84
2024-01-15T11:30:23.144Z,97039.06
2024-01-15T11:35:52.140Z,97033.74
2024-01-15T11:40:55.131Z,97032.95
2024-01-15T11:45:59.318Z,97021.19
2024-01-15T11:51:03.361Z,97020.98
2024-01-15T11:56:15.945Z,97025.73
2024-01-15T12:01:20.255Z,97029.57
2024-01-15T12:06:24.656Z,97024.47
2024-01-15T12:11:29.954Z,97030.73
2024-01-15T12:16:33.052Z,97025.78
2024-01-15T12:21:35.924Z,97024.73
2024-01-15T12:26:38.826Z,97023.39
2024-01-15T12:31:41.834Z,97025.55
2024-01-15T12:36:47.928Z,97025.76
2024-01-15T12:41:50.839Z,97030.30
2024-01-15T12:46:53.759Z,97019.24
2024-01-15T12:51:59.416Z,97020.25
2024-01-15T12:57:02.460Z,97026.48
2024-01-15T13:02:05.900Z,97024.97
2024-01-15T13:07:09.490Z,97012.54
2024-01-15T13:12:12.922Z,97016.30
2024-01-15T13:17:15.934Z,97018.14
2024-01-15T13:22:18.922Z,97023.67
2024-01-15T13:27:22.490Z,97013.87
2024-01-15T13:32:29.649Z,97021.66
2024-01-15T13:37:33.177Z,97021.81
2024-01-15T13:42:39.472Z,97018.86
2024-01-15T13:47:46.258Z,97013.38
2024-01-15T13:52:49.556Z,97021.92
2024-01-15T13:57:52.742Z,97030.51
2024-01-15T14:02:55.764Z,97029.03
2024-01-15T14:07:59.992Z,97035.95
2024-01-15T14:13:03.225Z,97034.21
2024-01-15T14:18:06.464Z,97037.65
2024-01-15T14:23:09.665Z,97031.27
2024-01-15T14:28:12.776Z,97037.36
2024-01-15T14:33:15.895Z,97043.29
2024-01-15T14:38:18.974Z,97051.31
2024-01-15T14:43:22.453Z,97048.78
2024-01-15T14:48:26.365Z,97046.02
2024-01-15T14:53:29.549Z,97049.90
2024-01-15T14:58:32.922Z,97048.20
2024-01-15T15:03:36.020Z,97063.60
2024-01-15T15:08:39.116Z,97051.77
2024-01-15T15:13:45.629Z,97053.79
2024-01-15T15:18:49.548Z,97048.80
2024-01-15T15:23:52.584Z,97049.67
2024-01-15T15:28:55.557Z,97041.70
2024-01-15T15:34:01.944Z,97044.80
2024-01-15T15:39:05.279Z,97050.19
2024-01-15T15:44:08.388Z,97056.14
2024-01-15T15:49:11.743Z,97059.91
2024-01-15T15:54:15.041Z,97060.63
2024-01-15T15:59:19.870Z,97064.84
2024-01-15T16:04:26.044Z,97058.08
2024-01-15T16:09:29.173Z,97052.16
2024-01-15T16:14:32.592Z,97052.19
2024-01-15T16:23:26.141Z,97048.15
2024-01-15T16:25:01.805Z,97036.86
2024-01-15T16:30:16.745Z,97045.56
2024-01-15T16:35:24.198Z,97042.67
2024-01-15T16:40:29.001Z,97032.44
2024-01-15T16:45:34.245Z,97036.50
2024-01-15T16:50:37.477Z,97041.55
2024-01-15T16:55:40.710Z,97049.91
2024-01-15T17:00:43.711Z,97046.10
2024-01-15T17:05:46.797Z,97042.45
2024-01-15T17:10:49.829Z,97046.92
2024-01-15T17:15:52.939Z,97047.11
2024-01-15T17:20:56.729Z,97058.16
2024-01-15T17:26:00.197Z,97065.64
2024-01-15T17:31:03.281Z,97066.06
2024-01-15T17:36:07.480Z,97069.67
2024-01-15T17:41:10.662Z,97071.76
2024-01-15T17:46:15.704Z,97070.55
2024-01-15T17:51:19.850Z,97069.92
2024-01-15T17:56:22.950Z,97069.20
2024-01-15T18:01:25.978Z,97075.02
2024-01-15T18:06:29.094Z,97064.96
2024-01-15T18:11:33.140Z,97058.28
2024-01-15T18:16:37.403Z,97066.91
2024-01-15T18:21:40.445Z,97067.42
2024-01-15T18:26:43.615Z,97066.98
2024-01-15T18:31:46.766Z,97058.08
2024-01-15T18:36:49.890Z,97050.50
2024-01-15T18:41:53.021Z,97045.54
2024-01-15T18:46:56.139Z,97042.98
2024-01-15T18:51:59.319Z,97053.30
2024-01-15T18:57:02.410Z,97055.05
2024-01-15T19:02:05.574Z,97057.70
2024-01-15T19:07:08.684Z,97058.52
2024-01-15T19:12:11.689Z,97057.69
2024-01-15T19:17:14.958Z,97062.06
2024-01-15T19:22:21.888Z,97065.81
2024-01-15T19:27:24.970Z,97069.95
2024-01-15T19:32:28.061Z,97070.60
2024-01-15T19:37:31.059Z,97073.65
2024-01-15T19:42:34.143Z,97069.71
2024-01-15T19:47:37.204Z,97078.77
2024-01-15T19:52:41.131Z,97068.98
2024-01-15T19:57:44.132Z,97077.33
2024-01-15T20:02:47.127Z,97085.35
2024-01-15T20:07:50.153Z,97107.35
2024-01-15T20:12:53.142Z,97108.87
2024-01-15T20:17:56.640Z,97108.77
2024-01-15T20:22:59.725Z,97117.55
2024-01-15T20:28:02.822Z,97128.73
2024-01-15T20:33:07.348Z,97126.50
2024-01-15T20:38:10.547Z,97136.61
2024-01-15T20:43:13.568Z,97141.39
2024-01-15T20:48:16.670Z,97146.70
2024-01-15T20:53:19.935Z,97162.20
2024-01-15T20:58:26.095Z,97182.34
2024-01-15T21:03:29.543Z,97195.58
2024-01-15T21:08:32.840Z,97197.86
2024-01-15T21:13:36.015Z,97200.05
2024-01-15T21:18:39.881Z,97207.72
2024-01-15T21:23:42.998Z,97217.20
2024-01-15T21:28:46.172Z,97212.21
2024-01-15T21:33:49.622Z,97222.52
2024-01-15T21:38:52.755Z,97232.61
2024-01-15T21:43:57.358Z,97249.44
2024-01-15T21:49:00.374Z,97250.75
2024-01-15T21:54:03.446Z,97257.92
2024-01-15T21:59:06.543Z,97260.17
2024-01-15T22:04:09.561Z,97255.90
2024-01-15T22:09:12.553Z,97267.95
2024-01-15T22:14:15.519Z,97274.14
2024-01-15T22:19:18.609Z,97283.65
2024-01-15T22:24:21.603Z,97292.52
2024-01-15T22:29:24.624Z,97306.55
2024-01-15T22:34:27.727Z,97315.61
2024-01-15T22:39:30.745Z,97321.94
2024-01-15T22:44:33.859Z,97321.57
2024-01-15T22:49:36.872Z,97340.05
2024-01-15T22:54:39.812Z,97345.80
2024-01-15T22:59:43.323Z,97353.48
2024-01-15T23:04:47.452Z,97356.31
2024-01-15T23:09:51.190Z,97360.48
2024-01-15T23:14:54.303Z,97374.64
2024-01-15T23:19:57.460Z,97383.84
2024-01-15T23:25:00.797Z,97388.53
2024-01-15T23:30:05.378Z,97400.84
2024-01-15T23:35:08.762Z,97407.77
2024-01-15T23:40:13.544Z,97416.55
2024-01-15T23:45:16.608Z,97417.51
2024-01-15T23:50:19.606Z,97426.80
2024-01-15T23:55:22.585Z,97428.83
